METAR de aeropuertos de Murcia y cercanos

 

LEAL - Alicante
Actualización: 30/03/2017 20:30
Despejado
Despejado
 Viento del NE
Viento: NE 6 km/h
Temperatura: 16°C
Rocío: 9°C
Humedad: 63%
Resumen: Despejado
Visibilidad: greater than 10 km
2017/03/30 18:30 LEAL 301830Z 04003KT 360V070 CAVOK 16/09 Q102
LEAB - Albacete
Actualización: 30/03/2017 20:00
Despejado
Despejado
 Viento del S
Viento: S 17 km/h
Temperatura: 16°C
Rocío: 3°C
Humedad: 42%
Barómetro: 1023 hPa
Resumen: Despejado
Visibilidad: greater than 10 km
2017/03/30 18:00 LEAB 301800Z 17009KT 130V200 CAVOK 16/03 Q1023 NOSIG
LEAM - Almería
Actualización: 30/03/2017 20:30
Despejado
Despejado
 Viento del E
Viento: E 9 km/h
Temperatura: 18°C
Rocío: 4°C
Humedad: 40%
Barómetro: 1023 hPa
Resumen: Despejado
Visibilidad: greater than 10 km
2017/03/30 18:30 LEAM 301830Z 08005KT 050V110 CAVOK 18/04 Q1023
 
LERI - Murcia/Alcantarilla
Actualización: 30/03/2017 20:00
Despejado
Despejado
 Viento del SE
Viento: SE 11 km/h
Temperatura: 17°C
Rocío: 6°C
Humedad: 49%
Barómetro: 1024 hPa
Resumen: Despejado
Visibilidad: greater than 10 km
2017/03/30 18:00 LERI 301800Z 13006KT CAVOK 17/06 Q1024 NOSIG
LELC - Murcia/San Javier
Actualización: 30/03/2017 20:00
Despejado
Despejado
 Viento del ENE
Viento: ENE 13 km/h
Temperatura: 16°C
Rocío: 12°C
Humedad: 77%
Barómetro: 1024 hPa
Resumen: Despejado
Visibilidad: greater than 10 km
2017/03/30 18:00 LELC 301800Z 06007KT 360V080 CAVOK 16/12 Q1024 NOSIG

La estación de MeteoMurcia.com, publica sus datos en los siguientes proyectos:

Meteoclimatic www.awekas.at

W3Counter
Web Analytics